sensor_id;sensor_type;location;lat;lon;timestamp;P1;durP1;ratioP1;P2;durP2;ratioP2
8046;SDS011;67150;42.516;23.358;2023-01-26T09:10:37;8.07;;;5.23;;
8046;SDS011;67150;42.516;23.358;2023-01-26T09:13:05;21.70;;;5.07;;
8046;SDS011;67150;42.516;23.358;2023-01-26T09:15:32;24.33;;;7.87;;
8046;SDS011;67150;42.516;23.358;2023-01-26T09:18:00;21.30;;;7.17;;
8046;SDS011;67150;42.516;23.358;2023-01-26T09:20:27;19.42;;;6.05;;
8046;SDS011;67150;42.516;23.358;2023-01-26T09:23:00;24.27;;;6.37;;
8046;SDS011;67150;42.516;23.358;2023-01-26T09:25:30;27.90;;;5.93;;
8046;SDS011;67150;42.516;23.358;2023-01-26T09:28:00;17.90;;;5.53;;
8046;SDS011;67150;42.516;23.358;2023-01-26T09:30:31;36.63;;;12.20;;
8046;SDS011;67150;42.516;23.358;2023-01-26T09:32:59;28.40;;;8.60;;
8046;SDS011;67150;42.516;23.358;2023-01-26T09:35:29;18.60;;;7.43;;
8046;SDS011;67150;42.516;23.358;2023-01-26T09:37:57;140.10;;;111.63;;
8046;SDS011;67150;42.516;23.358;2023-01-26T09:40:27;252.07;;;202.47;;
8046;SDS011;67150;42.516;23.358;2023-01-26T09:43:13;129.07;;;101.23;;
8046;SDS011;67150;42.516;23.358;2023-01-26T09:45:53;101.33;;;85.87;;
8046;SDS011;67150;42.516;23.358;2023-01-26T09:48:30;127.97;;;114.60;;
8046;SDS011;67150;42.516;23.358;2023-01-26T09:51:06;93.33;;;83.13;;
8046;SDS011;67150;42.516;23.358;2023-01-26T09:53:40;75.43;;;67.40;;
8046;SDS011;67150;42.516;23.358;2023-01-26T09:56:17;57.10;;;50.77;;
8046;SDS011;67150;42.516;23.358;2023-01-26T09:58:49;47.80;;;40.73;;
8046;SDS011;67150;42.516;23.358;2023-01-26T10:01:23;40.07;;;35.80;;
8046;SDS011;67150;42.516;23.358;2023-01-26T10:03:59;35.10;;;30.63;;
8046;SDS011;67150;42.516;23.358;2023-01-26T10:06:30;30.33;;;27.10;;
8046;SDS011;67150;42.516;23.358;2023-01-26T10:09:00;26.17;;;22.63;;
8046;SDS011;67150;42.516;23.358;2023-01-26T10:11:30;25.00;;;20.17;;
8046;SDS011;67150;42.516;23.358;2023-01-26T10:14:06;20.93;;;17.33;;
8046;SDS011;67150;42.516;23.358;2023-01-26T10:16:39;18.47;;;14.67;;
8046;SDS011;67150;42.516;23.358;2023-01-26T10:19:11;16.60;;;14.03;;
8046;SDS011;67150;42.516;23.358;2023-01-26T10:21:43;12.77;;;11.57;;
8046;SDS011;67150;42.516;23.358;2023-01-26T10:24:16;12.07;;;10.83;;
8046;SDS011;67150;42.516;23.358;2023-01-26T10:26:48;17.53;;;15.77;;
8046;SDS011;67150;42.516;23.358;2023-01-26T10:29:20;20.70;;;18.17;;
8046;SDS011;67150;42.516;23.358;2023-01-26T10:31:48;18.03;;;15.87;;
8046;SDS011;67150;42.516;23.358;2023-01-26T10:34:16;16.63;;;13.40;;
8046;SDS011;67150;42.516;23.358;2023-01-26T10:36:48;12.23;;;10.93;;
8046;SDS011;67150;42.516;23.358;2023-01-26T10:39:16;14.63;;;10.87;;
8046;SDS011;67150;42.516;23.358;2023-01-26T10:41:57;18.80;;;15.40;;
8046;SDS011;67150;42.516;23.358;2023-01-26T10:44:31;15.20;;;13.13;;
8046;SDS011;67150;42.516;23.358;2023-01-26T10:47:01;17.23;;;10.90;;
8046;SDS011;67150;42.516;23.358;2023-01-26T10:49:39;25.83;;;11.83;;
8046;SDS011;67150;42.516;23.358;2023-01-26T10:52:08;11.90;;;7.20;;
8046;SDS011;67150;42.516;23.358;2023-01-26T10:54:43;12.50;;;7.20;;
8046;SDS011;67150;42.516;23.358;2023-01-26T10:59:59;11.30;;;5.43;;
8046;SDS011;67150;42.516;23.358;2023-01-26T11:02:32;11.77;;;4.47;;
8046;SDS011;67150;42.516;23.358;2023-01-26T11:07:47;23.03;;;16.13;;
8046;SDS011;67150;42.516;23.358;2023-01-26T11:10:23;14.47;;;7.40;;
8046;SDS011;67150;42.516;23.358;2023-01-26T11:13:05;10.80;;;6.20;;
8046;SDS011;67150;42.516;23.358;2023-01-26T11:15:36;13.03;;;5.40;;
8046;SDS011;67150;42.516;23.358;2023-01-26T11:18:09;9.73;;;4.83;;
8046;SDS011;67150;42.516;23.358;2023-01-26T11:23:41;11.83;;;4.33;;
8046;SDS011;67150;42.516;23.358;2023-01-26T11:29:28;5.80;;;3.90;;
8046;SDS011;67150;42.516;23.358;2023-01-26T11:32:19;5.43;;;3.93;;
8046;SDS011;67150;42.516;23.358;2023-01-26T11:34:54;4.40;;;4.00;;
8046;SDS011;67150;42.516;23.358;2023-01-26T11:37:35;4.30;;;3.90;;
8046;SDS011;67150;42.516;23.358;2023-01-26T11:40:13;3.97;;;3.53;;
8046;SDS011;67150;42.516;23.358;2023-01-26T11:42:50;9.87;;;3.57;;
8046;SDS011;67150;42.516;23.358;2023-01-26T11:45:35;6.30;;;3.90;;
8046;SDS011;67150;42.516;23.358;2023-01-26T11:48:12;3.83;;;3.53;;
8046;SDS011;67150;42.516;23.358;2023-01-26T11:50:49;3.90;;;3.50;;
8046;SDS011;67150;42.516;23.358;2023-01-26T11:53:28;4.20;;;3.40;;
8046;SDS011;67150;42.516;23.358;2023-01-26T11:56:09;3.83;;;3.53;;
8046;SDS011;67150;42.516;23.358;2023-01-26T11:58:56;3.93;;;3.63;;
8046;SDS011;67150;42.516;23.358;2023-01-26T12:01:30;4.13;;;3.50;;
8046;SDS011;67150;42.516;23.358;2023-01-26T12:04:08;4.47;;;3.43;;
8046;SDS011;67150;42.516;23.358;2023-01-26T12:06:44;16.40;;;13.20;;
8046;SDS011;67150;42.516;23.358;2023-01-26T12:09:17;42.93;;;34.37;;
8046;SDS011;67150;42.516;23.358;2023-01-26T12:11:50;34.70;;;30.13;;
8046;SDS011;67150;42.516;23.358;2023-01-26T12:14:29;29.13;;;25.90;;
8046;SDS011;67150;42.516;23.358;2023-01-26T12:17:12;24.93;;;22.40;;
8046;SDS011;67150;42.516;23.358;2023-01-26T12:19:53;20.33;;;18.37;;
8046;SDS011;67150;42.516;23.358;2023-01-26T12:22:30;18.77;;;16.87;;
8046;SDS011;67150;42.516;23.358;2023-01-26T12:25:07;16.63;;;15.10;;
8046;SDS011;67150;42.516;23.358;2023-01-26T12:27:46;14.23;;;12.93;;
8046;SDS011;67150;42.516;23.358;2023-01-26T12:33:16;11.53;;;10.50;;
8046;SDS011;67150;42.516;23.358;2023-01-26T12:35:49;11.77;;;10.73;;
8046;SDS011;67150;42.516;23.358;2023-01-26T12:38:39;11.10;;;10.03;;
8046;SDS011;67150;42.516;23.358;2023-01-26T12:41:25;10.53;;;9.53;;
8046;SDS011;67150;42.516;23.358;2023-01-26T12:46:52;8.30;;;7.50;;
8046;SDS011;67150;42.516;23.358;2023-01-26T12:49:28;7.93;;;7.23;;
8046;SDS011;67150;42.516;23.358;2023-01-26T12:52:06;7.93;;;6.40;;
8046;SDS011;67150;42.516;23.358;2023-01-26T12:54:42;7.23;;;6.53;;
8046;SDS011;67150;42.516;23.358;2023-01-26T12:57:14;6.60;;;6.00;;
8046;SDS011;67150;42.516;23.358;2023-01-26T12:59:47;6.13;;;5.63;;
8046;SDS011;67150;42.516;23.358;2023-01-26T13:02:25;6.20;;;5.60;;
8046;SDS011;67150;42.516;23.358;2023-01-26T13:04:56;7.77;;;5.57;;
8046;SDS011;67150;42.516;23.358;2023-01-26T13:10:27;6.00;;;5.10;;
8046;SDS011;67150;42.516;23.358;2023-01-26T13:13:31;4.37;;;3.97;;
8046;SDS011;67150;42.516;23.358;2023-01-26T13:19:08;5.07;;;3.73;;
8046;SDS011;67150;42.516;23.358;2023-01-26T13:22:02;6.23;;;3.93;;
8046;SDS011;67150;42.516;23.358;2023-01-26T13:24:48;5.00;;;3.57;;
8046;SDS011;67150;42.516;23.358;2023-01-26T13:33:15;9.33;;;4.20;;
8046;SDS011;67150;42.516;23.358;2023-01-26T13:35:56;4.27;;;3.87;;
8046;SDS011;67150;42.516;23.358;2023-01-26T13:38:29;6.00;;;3.37;;
8046;SDS011;67150;42.516;23.358;2023-01-26T13:41:02;9.10;;;3.67;;
8046;SDS011;67150;42.516;23.358;2023-01-26T13:43:36;5.20;;;3.50;;
8046;SDS011;67150;42.516;23.358;2023-01-26T13:46:09;3.97;;;3.57;;
8046;SDS011;67150;42.516;23.358;2023-01-26T13:48:41;6.47;;;5.13;;
8046;SDS011;67150;42.516;23.358;2023-01-26T13:51:12;7.33;;;4.90;;
8046;SDS011;67150;42.516;23.358;2023-01-26T13:53:42;6.03;;;4.70;;
8046;SDS011;67150;42.516;23.358;2023-01-26T13:56:22;5.70;;;5.20;;
8046;SDS011;67150;42.516;23.358;2023-01-26T13:58:50;5.27;;;4.83;;
8046;SDS011;67150;42.516;23.358;2023-01-26T14:01:18;5.30;;;4.83;;
8046;SDS011;67150;42.516;23.358;2023-01-26T14:03:47;5.50;;;5.00;;
8046;SDS011;67150;42.516;23.358;2023-01-26T14:06:15;5.73;;;5.23;;
8046;SDS011;67150;42.516;23.358;2023-01-26T14:08:47;5.40;;;4.90;;
8046;SDS011;67150;42.516;23.358;2023-01-26T14:11:18;6.17;;;5.03;;
8046;SDS011;67150;42.516;23.358;2023-01-26T14:13:49;5.90;;;5.40;;
8046;SDS011;67150;42.516;23.358;2023-01-26T14:16:21;5.60;;;5.17;;
8046;SDS011;67150;42.516;23.358;2023-01-26T14:18:50;5.80;;;5.30;;
8046;SDS011;67150;42.516;23.358;2023-01-26T14:21:18;5.80;;;5.30;;
8046;SDS011;67150;42.516;23.358;2023-01-26T14:23:52;5.53;;;5.07;;
8046;SDS011;67150;42.516;23.358;2023-01-26T14:26:25;6.07;;;5.47;;
8046;SDS011;67150;42.516;23.358;2023-01-26T14:28:56;6.50;;;5.90;;
8046;SDS011;67150;42.516;23.358;2023-01-26T14:31:27;6.57;;;5.43;;
8046;SDS011;67150;42.516;23.358;2023-01-26T14:33:57;6.23;;;5.73;;
8046;SDS011;67150;42.516;23.358;2023-01-26T14:36:25;5.90;;;5.40;;
8046;SDS011;67150;42.516;23.358;2023-01-26T14:38:54;6.23;;;5.63;;
8046;SDS011;67150;42.516;23.358;2023-01-26T14:41:28;6.03;;;5.43;;
8046;SDS011;67150;42.516;23.358;2023-01-26T14:43:58;5.80;;;5.30;;
8046;SDS011;67150;42.516;23.358;2023-01-26T14:46:32;6.20;;;5.47;;
8046;SDS011;67150;42.516;23.358;2023-01-26T14:49:07;5.27;;;4.87;;
8046;SDS011;67150;42.516;23.358;2023-01-26T14:51:37;209.63;;;165.20;;
8046;SDS011;67150;42.516;23.358;2023-01-26T14:54:08;63.83;;;48.07;;
8046;SDS011;67150;42.516;23.358;2023-01-26T14:56:44;45.63;;;34.80;;
8046;SDS011;67150;42.516;23.358;2023-01-26T14:59:16;38.70;;;29.73;;
8046;SDS011;67150;42.516;23.358;2023-01-26T15:01:46;33.03;;;27.17;;
8046;SDS011;67150;42.516;23.358;2023-01-26T15:04:17;26.37;;;21.63;;
8046;SDS011;67150;42.516;23.358;2023-01-26T15:06:50;22.97;;;18.97;;
8046;SDS011;67150;42.516;23.358;2023-01-26T15:09:19;18.47;;;15.97;;
8046;SDS011;67150;42.516;23.358;2023-01-26T15:11:53;17.93;;;16.03;;
8046;SDS011;67150;42.516;23.358;2023-01-26T15:14:47;16.20;;;13.93;;
8046;SDS011;67150;42.516;23.358;2023-01-26T15:23:18;10.97;;;9.87;;
8046;SDS011;67150;42.516;23.358;2023-01-26T15:25:48;10.17;;;9.17;;
8046;SDS011;67150;42.516;23.358;2023-01-26T15:28:17;10.87;;;7.77;;
8046;SDS011;67150;42.516;23.358;2023-01-26T15:30:48;8.63;;;6.70;;
8046;SDS011;67150;42.516;23.358;2023-01-26T15:36:25;6.43;;;5.83;;
8046;SDS011;67150;42.516;23.358;2023-01-26T15:38:58;6.47;;;5.87;;
8046;SDS011;67150;42.516;23.358;2023-01-26T15:41:27;5.63;;;5.07;;
8046;SDS011;67150;42.516;23.358;2023-01-26T15:43:56;5.60;;;5.10;;
8046;SDS011;67150;42.516;23.358;2023-01-26T15:46:24;7.13;;;6.43;;
8046;SDS011;67150;42.516;23.358;2023-01-26T15:48:52;23.30;;;21.13;;
8046;SDS011;67150;42.516;23.358;2023-01-26T15:51:20;26.17;;;23.67;;
8046;SDS011;67150;42.516;23.358;2023-01-26T15:53:47;24.57;;;22.20;;
8046;SDS011;67150;42.516;23.358;2023-01-26T15:56:15;90.80;;;81.27;;
8046;SDS011;67150;42.516;23.358;2023-01-26T15:58:42;53.03;;;47.43;;
8046;SDS011;67150;42.516;23.358;2023-01-26T16:01:15;38.30;;;34.50;;
8046;SDS011;67150;42.516;23.358;2023-01-26T16:03:46;29.63;;;26.67;;
8046;SDS011;67150;42.516;23.358;2023-01-26T16:06:22;17.20;;;15.60;;
8046;SDS011;67150;42.516;23.358;2023-01-26T16:08:50;15.83;;;14.23;;
8046;SDS011;67150;42.516;23.358;2023-01-26T16:11:19;13.50;;;12.27;;
8046;SDS011;67150;42.516;23.358;2023-01-26T16:13:47;10.87;;;9.87;;
8046;SDS011;67150;42.516;23.358;2023-01-26T16:16:16;9.07;;;8.20;;
8046;SDS011;67150;42.516;23.358;2023-01-26T16:18:43;8.83;;;8.03;;
8046;SDS011;67150;42.516;23.358;2023-01-26T16:21:15;7.17;;;6.57;;
8046;SDS011;67150;42.516;23.358;2023-01-26T16:23:44;6.30;;;5.80;;
8046;SDS011;67150;42.516;23.358;2023-01-26T16:26:13;5.70;;;5.20;;
8046;SDS011;67150;42.516;23.358;2023-01-26T16:28:43;5.23;;;4.83;;
8046;SDS011;67150;42.516;23.358;2023-01-26T16:31:12;4.83;;;4.37;;
8046;SDS011;67150;42.516;23.358;2023-01-26T16:33:42;4.30;;;3.90;;
8046;SDS011;67150;42.516;23.358;2023-01-26T16:36:10;3.87;;;3.57;;
8046;SDS011;67150;42.516;23.358;2023-01-26T16:41:49;3.60;;;2.87;;
8046;SDS011;67150;42.516;23.358;2023-01-26T16:44:16;3.10;;;2.90;;
8046;SDS011;67150;42.516;23.358;2023-01-26T16:46:46;2.53;;;2.40;;
8046;SDS011;67150;42.516;23.358;2023-01-26T16:49:14;2.90;;;2.47;;
8046;SDS011;67150;42.516;23.358;2023-01-26T16:51:42;2.43;;;2.33;;
8046;SDS011;67150;42.516;23.358;2023-01-26T16:54:10;2.40;;;2.30;;
8046;SDS011;67150;42.516;23.358;2023-01-26T16:56:37;2.57;;;2.43;;
8046;SDS011;67150;42.516;23.358;2023-01-26T16:59:04;2.70;;;2.50;;
8046;SDS011;67150;42.516;23.358;2023-01-26T17:01:34;2.40;;;2.20;;
8046;SDS011;67150;42.516;23.358;2023-01-26T17:04:02;2.60;;;2.40;;
8046;SDS011;67150;42.516;23.358;2023-01-26T17:06:32;2.30;;;2.20;;
8046;SDS011;67150;42.516;23.358;2023-01-26T17:08:59;3.70;;;3.40;;
8046;SDS011;67150;42.516;23.358;2023-01-26T17:11:27;9.47;;;5.50;;
8046;SDS011;67150;42.516;23.358;2023-01-26T17:13:55;5.60;;;5.10;;
8046;SDS011;67150;42.516;23.358;2023-01-26T17:16:24;5.83;;;5.23;;
8046;SDS011;67150;42.516;23.358;2023-01-26T17:18:56;8.47;;;5.50;;
8046;SDS011;67150;42.516;23.358;2023-01-26T17:21:23;5.20;;;4.70;;
8046;SDS011;67150;42.516;23.358;2023-01-26T17:23:53;5.87;;;4.70;;
8046;SDS011;67150;42.516;23.358;2023-01-26T17:26:22;6.53;;;4.73;;
8046;SDS011;67150;42.516;23.358;2023-01-26T17:28:51;5.20;;;4.40;;
8046;SDS011;67150;42.516;23.358;2023-01-26T17:31:20;5.07;;;4.40;;
8046;SDS011;67150;42.516;23.358;2023-01-26T17:33:48;4.07;;;3.77;;
8046;SDS011;67150;42.516;23.358;2023-01-26T17:36:17;3.80;;;3.50;;
8046;SDS011;67150;42.516;23.358;2023-01-26T17:38:45;5.07;;;3.57;;
8046;SDS011;67150;42.516;23.358;2023-01-26T17:41:15;3.77;;;3.47;;
8046;SDS011;67150;42.516;23.358;2023-01-26T17:43:43;3.67;;;3.37;;
8046;SDS011;67150;42.516;23.358;2023-01-26T17:46:12;3.30;;;3.00;;
8046;SDS011;67150;42.516;23.358;2023-01-26T17:48:41;3.27;;;2.97;;
8046;SDS011;67150;42.516;23.358;2023-01-26T17:51:09;2.40;;;2.30;;
8046;SDS011;67150;42.516;23.358;2023-01-26T17:53:37;3.47;;;2.73;;
8046;SDS011;67150;42.516;23.358;2023-01-26T17:56:06;2.53;;;2.33;;
8046;SDS011;67150;42.516;23.358;2023-01-26T17:58:35;2.70;;;2.50;;
8046;SDS011;67150;42.516;23.358;2023-01-26T18:01:02;2.70;;;2.50;;
8046;SDS011;67150;42.516;23.358;2023-01-26T18:03:30;4.13;;;2.33;;
8046;SDS011;67150;42.516;23.358;2023-01-26T18:05:58;2.60;;;2.40;;
8046;SDS011;67150;42.516;23.358;2023-01-26T18:08:26;2.60;;;2.40;;
8046;SDS011;67150;42.516;23.358;2023-01-26T18:10:56;2.30;;;2.10;;
8046;SDS011;67150;42.516;23.358;2023-01-26T18:13:25;2.70;;;2.50;;
8046;SDS011;67150;42.516;23.358;2023-01-26T18:15:55;2.77;;;2.57;;
8046;SDS011;67150;42.516;23.358;2023-01-26T18:18:23;2.97;;;2.20;;
8046;SDS011;67150;42.516;23.358;2023-01-26T18:20:54;2.20;;;2.10;;
8046;SDS011;67150;42.516;23.358;2023-01-26T18:23:22;2.40;;;2.30;;
8046;SDS011;67150;42.516;23.358;2023-01-26T18:25:50;2.30;;;2.10;;
8046;SDS011;67150;42.516;23.358;2023-01-26T18:28:17;11.27;;;9.50;;
8046;SDS011;67150;42.516;23.358;2023-01-26T18:30:48;16.07;;;13.63;;
8046;SDS011;67150;42.516;23.358;2023-01-26T18:33:17;7.87;;;6.90;;
8046;SDS011;67150;42.516;23.358;2023-01-26T18:35:44;6.57;;;5.57;;
8046;SDS011;67150;42.516;23.358;2023-01-26T18:38:12;4.80;;;4.30;;
8046;SDS011;67150;42.516;23.358;2023-01-26T18:40:40;5.93;;;4.40;;
8046;SDS011;67150;42.516;23.358;2023-01-26T18:43:08;4.20;;;3.80;;
8046;SDS011;67150;42.516;23.358;2023-01-26T18:45:35;3.40;;;3.10;;
8046;SDS011;67150;42.516;23.358;2023-01-26T18:48:07;3.43;;;3.03;;
8046;SDS011;67150;42.516;23.358;2023-01-26T18:50:39;2.90;;;2.70;;
8046;SDS011;67150;42.516;23.358;2023-01-26T18:53:07;2.20;;;2.10;;
8046;SDS011;67150;42.516;23.358;2023-01-26T18:55:35;2.30;;;2.20;;
8046;SDS011;67150;42.516;23.358;2023-01-26T19:00:57;2.30;;;2.10;;
8046;SDS011;67150;42.516;23.358;2023-01-26T19:03:30;1.80;;;1.70;;
8046;SDS011;67150;42.516;23.358;2023-01-26T19:06:04;2.00;;;1.90;;
8046;SDS011;67150;42.516;23.358;2023-01-26T19:08:34;2.80;;;1.83;;
8046;SDS011;67150;42.516;23.358;2023-01-26T19:11:03;1.77;;;1.67;;
8046;SDS011;67150;42.516;23.358;2023-01-26T19:13:34;2.90;;;1.80;;
8046;SDS011;67150;42.516;23.358;2023-01-26T19:16:06;2.33;;;1.50;;
8046;SDS011;67150;42.516;23.358;2023-01-26T19:21:11;1.27;;;1.27;;
8046;SDS011;67150;42.516;23.358;2023-01-26T19:23:38;1.80;;;1.50;;
8046;SDS011;67150;42.516;23.358;2023-01-26T19:26:10;1.20;;;1.20;;
8046;SDS011;67150;42.516;23.358;2023-01-26T19:28:38;2.50;;;1.37;;
8046;SDS011;67150;42.516;23.358;2023-01-26T19:31:07;1.47;;;1.37;;
8046;SDS011;67150;42.516;23.358;2023-01-26T19:33:39;1.70;;;1.60;;
8046;SDS011;67150;42.516;23.358;2023-01-26T19:36:32;1.60;;;1.50;;
8046;SDS011;67150;42.516;23.358;2023-01-26T19:39:06;1.40;;;1.30;;
8046;SDS011;67150;42.516;23.358;2023-01-26T19:41:40;1.60;;;1.50;;
8046;SDS011;67150;42.516;23.358;2023-01-26T19:44:08;1.50;;;1.40;;
8046;SDS011;67150;42.516;23.358;2023-01-26T19:46:35;1.30;;;1.30;;
8046;SDS011;67150;42.516;23.358;2023-01-26T19:49:04;1.30;;;1.30;;
8046;SDS011;67150;42.516;23.358;2023-01-26T19:51:38;1.57;;;1.47;;
8046;SDS011;67150;42.516;23.358;2023-01-26T19:54:06;1.50;;;1.40;;
8046;SDS011;67150;42.516;23.358;2023-01-26T19:56:37;1.50;;;1.40;;
8046;SDS011;67150;42.516;23.358;2023-01-26T19:59:05;1.63;;;1.53;;
8046;SDS011;67150;42.516;23.358;2023-01-26T20:01:35;1.50;;;1.40;;
8046;SDS011;67150;42.516;23.358;2023-01-26T20:04:03;1.50;;;1.40;;
8046;SDS011;67150;42.516;23.358;2023-01-26T20:06:33;7.33;;;5.23;;
8046;SDS011;67150;42.516;23.358;2023-01-26T20:09:04;3.73;;;3.20;;
8046;SDS011;67150;42.516;23.358;2023-01-26T20:11:32;13.07;;;6.20;;
8046;SDS011;67150;42.516;23.358;2023-01-26T20:14:02;4.93;;;3.73;;
8046;SDS011;67150;42.516;23.358;2023-01-26T20:16:33;7.23;;;3.60;;
8046;SDS011;67150;42.516;23.358;2023-01-26T20:19:03;4.77;;;3.40;;
8046;SDS011;67150;42.516;23.358;2023-01-26T20:21:33;5.27;;;2.93;;
8046;SDS011;67150;42.516;23.358;2023-01-26T20:24:07;3.60;;;2.90;;
8046;SDS011;67150;42.516;23.358;2023-01-26T20:26:39;5.97;;;3.13;;
8046;SDS011;67150;42.516;23.358;2023-01-26T20:29:09;3.37;;;2.50;;
8046;SDS011;67150;42.516;23.358;2023-01-26T20:31:39;3.10;;;2.50;;
8046;SDS011;67150;42.516;23.358;2023-01-26T20:34:07;25.57;;;22.87;;
8046;SDS011;67150;42.516;23.358;2023-01-26T20:36:36;7.07;;;6.37;;
8046;SDS011;67150;42.516;23.358;2023-01-26T20:39:10;5.57;;;5.07;;
8046;SDS011;67150;42.516;23.358;2023-01-26T20:41:42;4.93;;;4.53;;
8046;SDS011;67150;42.516;23.358;2023-01-26T20:44:10;4.20;;;3.80;;
8046;SDS011;67150;42.516;23.358;2023-01-26T20:46:39;3.60;;;3.30;;
8046;SDS011;67150;42.516;23.358;2023-01-26T20:49:08;3.50;;;3.20;;
8046;SDS011;67150;42.516;23.358;2023-01-26T20:51:39;3.10;;;2.90;;
8046;SDS011;67150;42.516;23.358;2023-01-26T20:54:11;3.20;;;2.90;;
8046;SDS011;67150;42.516;23.358;2023-01-26T20:56:41;2.77;;;2.33;;
8046;SDS011;67150;42.516;23.358;2023-01-26T20:59:10;2.70;;;2.50;;
8046;SDS011;67150;42.516;23.358;2023-01-26T21:01:39;2.40;;;2.30;;
8046;SDS011;67150;42.516;23.358;2023-01-26T21:04:06;2.20;;;2.00;;
8046;SDS011;67150;42.516;23.358;2023-01-26T21:06:34;2.67;;;1.93;;
8046;SDS011;67150;42.516;23.358;2023-01-26T21:09:03;1.90;;;1.80;;
8046;SDS011;67150;42.516;23.358;2023-01-26T21:11:33;1.90;;;1.80;;
8046;SDS011;67150;42.516;23.358;2023-01-26T21:14:02;2.23;;;2.03;;
8046;SDS011;67150;42.516;23.358;2023-01-26T21:16:31;2.87;;;1.73;;
8046;SDS011;67150;42.516;23.358;2023-01-26T21:19:02;2.60;;;1.77;;
8046;SDS011;67150;42.516;23.358;2023-01-26T21:21:30;1.87;;;1.77;;
8046;SDS011;67150;42.516;23.358;2023-01-26T21:23:58;3.47;;;1.90;;
8046;SDS011;67150;42.516;23.358;2023-01-26T21:26:26;3.17;;;2.10;;
8046;SDS011;67150;42.516;23.358;2023-01-26T21:28:56;1.90;;;1.80;;
8046;SDS011;67150;42.516;23.358;2023-01-26T21:31:26;1.80;;;1.70;;
8046;SDS011;67150;42.516;23.358;2023-01-26T21:33:55;1.90;;;1.80;;
8046;SDS011;67150;42.516;23.358;2023-01-26T21:36:24;1.50;;;1.40;;
8046;SDS011;67150;42.516;23.358;2023-01-26T21:38:53;1.60;;;1.50;;
8046;SDS011;67150;42.516;23.358;2023-01-26T21:41:22;1.73;;;1.37;;
8046;SDS011;67150;42.516;23.358;2023-01-26T21:44:12;1.20;;;1.20;;
8046;SDS011;67150;42.516;23.358;2023-01-26T21:46:40;1.60;;;1.50;;
8046;SDS011;67150;42.516;23.358;2023-01-26T21:49:10;1.83;;;1.40;;
8046;SDS011;67150;42.516;23.358;2023-01-26T21:51:38;3.90;;;1.17;;
8046;SDS011;67150;42.516;23.358;2023-01-26T21:54:23;1.40;;;1.30;;
8046;SDS011;67150;42.516;23.358;2023-01-26T21:56:52;1.30;;;1.30;;
8046;SDS011;67150;42.516;23.358;2023-01-26T21:59:21;1.40;;;1.30;;
8046;SDS011;67150;42.516;23.358;2023-01-26T22:01:48;1.20;;;1.20;;
8046;SDS011;67150;42.516;23.358;2023-01-26T22:04:17;1.20;;;1.20;;
8046;SDS011;67150;42.516;23.358;2023-01-26T22:06:46;1.00;;;1.00;;
8046;SDS011;67150;42.516;23.358;2023-01-26T22:09:15;1.20;;;1.20;;
8046;SDS011;67150;42.516;23.358;2023-01-26T22:11:43;1.30;;;1.20;;
8046;SDS011;67150;42.516;23.358;2023-01-26T22:14:12;1.20;;;1.10;;
8046;SDS011;67150;42.516;23.358;2023-01-26T22:16:42;1.90;;;1.20;;
8046;SDS011;67150;42.516;23.358;2023-01-26T22:19:10;1.10;;;1.10;;
